sensor_id;sensor_type;location;lat;lon;timestamp;P1;durP1;ratioP1;P2;durP2;ratioP2
42616;SDS011;28250;52.320;0.360;2023-06-22T00:00:52;4.60;;;3.45;;
42616;SDS011;28250;52.320;0.360;2023-06-22T00:03:19;5.30;;;3.50;;
42616;SDS011;28250;52.320;0.360;2023-06-22T00:05:47;6.57;;;3.70;;
42616;SDS011;28250;52.320;0.360;2023-06-22T00:08:14;5.65;;;3.80;;
42616;SDS011;28250;52.320;0.360;2023-06-22T00:10:42;4.57;;;3.40;;
42616;SDS011;28250;52.320;0.360;2023-06-22T00:13:08;7.30;;;3.75;;
42616;SDS011;28250;52.320;0.360;2023-06-22T00:15:36;4.63;;;3.58;;
42616;SDS011;28250;52.320;0.360;2023-06-22T00:18:04;4.75;;;3.70;;
42616;SDS011;28250;52.320;0.360;2023-06-22T00:20:34;6.60;;;3.95;;
42616;SDS011;28250;52.320;0.360;2023-06-22T00:23:03;5.80;;;3.85;;
42616;SDS011;28250;52.320;0.360;2023-06-22T00:25:39;5.35;;;3.40;;
42616;SDS011;28250;52.320;0.360;2023-06-22T00:28:06;4.43;;;3.13;;
42616;SDS011;28250;52.320;0.360;2023-06-22T00:30:34;4.50;;;3.53;;
42616;SDS011;28250;52.320;0.360;2023-06-22T00:33:01;6.28;;;3.53;;
42616;SDS011;28250;52.320;0.360;2023-06-22T00:35:27;5.82;;;3.28;;
42616;SDS011;28250;52.320;0.360;2023-06-22T00:37:56;5.65;;;3.38;;
42616;SDS011;28250;52.320;0.360;2023-06-22T00:40:28;8.23;;;3.72;;
42616;SDS011;28250;52.320;0.360;2023-06-22T00:42:58;5.82;;;3.92;;
42616;SDS011;28250;52.320;0.360;2023-06-22T00:45:25;5.88;;;4.00;;
42616;SDS011;28250;52.320;0.360;2023-06-22T00:47:52;8.32;;;4.45;;
42616;SDS011;28250;52.320;0.360;2023-06-22T00:50:22;4.20;;;3.60;;
42616;SDS011;28250;52.320;0.360;2023-06-22T00:52:51;6.32;;;3.75;;
42616;SDS011;28250;52.320;0.360;2023-06-22T00:55:22;6.80;;;4.20;;
42616;SDS011;28250;52.320;0.360;2023-06-22T00:57:49;6.65;;;3.72;;
42616;SDS011;28250;52.320;0.360;2023-06-22T01:00:16;5.13;;;3.80;;
42616;SDS011;28250;52.320;0.360;2023-06-22T01:02:44;6.70;;;4.05;;
42616;SDS011;28250;52.320;0.360;2023-06-22T01:05:12;7.22;;;4.50;;
42616;SDS011;28250;52.320;0.360;2023-06-22T01:07:44;10.98;;;5.93;;
42616;SDS011;28250;52.320;0.360;2023-06-22T01:16:00;7.10;;;4.20;;
42616;SDS011;28250;52.320;0.360;2023-06-22T01:18:31;6.93;;;4.88;;
42616;SDS011;28250;52.320;0.360;2023-06-22T01:21:01;8.23;;;4.72;;
42616;SDS011;28250;52.320;0.360;2023-06-22T01:26:20;7.28;;;4.60;;
42616;SDS011;28250;52.320;0.360;2023-06-22T01:28:57;7.82;;;3.95;;
42616;SDS011;28250;52.320;0.360;2023-06-22T01:31:27;7.65;;;4.70;;
42616;SDS011;28250;52.320;0.360;2023-06-22T01:33:59;7.78;;;4.55;;
42616;SDS011;28250;52.320;0.360;2023-06-22T01:36:28;6.40;;;4.28;;
42616;SDS011;28250;52.320;0.360;2023-06-22T01:38:56;5.53;;;4.63;;
42616;SDS011;28250;52.320;0.360;2023-06-22T01:41:25;8.90;;;4.47;;
42616;SDS011;28250;52.320;0.360;2023-06-22T01:43:52;6.03;;;4.43;;
42616;SDS011;28250;52.320;0.360;2023-06-22T01:46:19;7.95;;;4.40;;
42616;SDS011;28250;52.320;0.360;2023-06-22T01:48:46;7.75;;;4.82;;
42616;SDS011;28250;52.320;0.360;2023-06-22T01:51:13;5.45;;;4.20;;
42616;SDS011;28250;52.320;0.360;2023-06-22T01:53:40;8.23;;;4.07;;
42616;SDS011;28250;52.320;0.360;2023-06-22T01:56:07;6.32;;;4.00;;
42616;SDS011;28250;52.320;0.360;2023-06-22T01:58:34;6.05;;;4.43;;
42616;SDS011;28250;52.320;0.360;2023-06-22T02:03:37;7.85;;;4.82;;
42616;SDS011;28250;52.320;0.360;2023-06-22T02:06:14;10.15;;;4.88;;
42616;SDS011;28250;52.320;0.360;2023-06-22T02:08:49;10.80;;;5.57;;
42616;SDS011;28250;52.320;0.360;2023-06-22T02:11:18;9.20;;;5.22;;
42616;SDS011;28250;52.320;0.360;2023-06-22T02:13:44;8.07;;;4.95;;
42616;SDS011;28250;52.320;0.360;2023-06-22T02:18:45;10.25;;;5.38;;
42616;SDS011;28250;52.320;0.360;2023-06-22T02:21:12;9.48;;;5.40;;
42616;SDS011;28250;52.320;0.360;2023-06-22T02:23:39;7.00;;;5.17;;
42616;SDS011;28250;52.320;0.360;2023-06-22T02:26:05;9.00;;;4.72;;
42616;SDS011;28250;52.320;0.360;2023-06-22T02:28:32;9.90;;;5.68;;
42616;SDS011;28250;52.320;0.360;2023-06-22T02:30:58;7.43;;;5.38;;
42616;SDS011;28250;52.320;0.360;2023-06-22T02:33:24;9.32;;;5.45;;
42616;SDS011;28250;52.320;0.360;2023-06-22T02:35:51;9.48;;;5.85;;
42616;SDS011;28250;52.320;0.360;2023-06-22T02:38:21;10.73;;;6.00;;
42616;SDS011;28250;52.320;0.360;2023-06-22T02:40:51;8.90;;;5.88;;
42616;SDS011;28250;52.320;0.360;2023-06-22T02:43:17;12.60;;;6.30;;
42616;SDS011;28250;52.320;0.360;2023-06-22T02:45:43;11.95;;;6.38;;
42616;SDS011;28250;52.320;0.360;2023-06-22T02:48:10;9.82;;;5.60;;
42616;SDS011;28250;52.320;0.360;2023-06-22T02:50:37;12.10;;;5.47;;
42616;SDS011;28250;52.320;0.360;2023-06-22T02:53:04;8.88;;;5.38;;
42616;SDS011;28250;52.320;0.360;2023-06-22T02:55:35;9.00;;;5.50;;
42616;SDS011;28250;52.320;0.360;2023-06-22T02:58:01;12.02;;;5.65;;
42616;SDS011;28250;52.320;0.360;2023-06-22T03:00:32;8.20;;;5.57;;
42616;SDS011;28250;52.320;0.360;2023-06-22T03:02:59;11.50;;;5.95;;
42616;SDS011;28250;52.320;0.360;2023-06-22T03:05:26;10.43;;;6.40;;
42616;SDS011;28250;52.320;0.360;2023-06-22T03:07:53;8.20;;;5.57;;
42616;SDS011;28250;52.320;0.360;2023-06-22T03:10:19;8.25;;;5.65;;
42616;SDS011;28250;52.320;0.360;2023-06-22T03:12:46;8.50;;;4.97;;
42616;SDS011;28250;52.320;0.360;2023-06-22T03:15:12;9.80;;;5.78;;
42616;SDS011;28250;52.320;0.360;2023-06-22T03:17:39;9.80;;;6.43;;
42616;SDS011;28250;52.320;0.360;2023-06-22T03:20:07;10.10;;;5.00;;
42616;SDS011;28250;52.320;0.360;2023-06-22T03:22:36;9.95;;;5.45;;
42616;SDS011;28250;52.320;0.360;2023-06-22T03:25:05;11.82;;;6.00;;
42616;SDS011;28250;52.320;0.360;2023-06-22T03:27:39;9.05;;;5.78;;
42616;SDS011;28250;52.320;0.360;2023-06-22T03:30:07;10.07;;;6.32;;
42616;SDS011;28250;52.320;0.360;2023-06-22T03:32:35;9.68;;;5.72;;
42616;SDS011;28250;52.320;0.360;2023-06-22T03:35:03;10.43;;;6.82;;
42616;SDS011;28250;52.320;0.360;2023-06-22T03:37:33;9.60;;;6.20;;
42616;SDS011;28250;52.320;0.360;2023-06-22T03:40:00;9.93;;;6.43;;
42616;SDS011;28250;52.320;0.360;2023-06-22T03:42:28;14.93;;;7.10;;
42616;SDS011;28250;52.320;0.360;2023-06-22T03:44:55;10.32;;;5.78;;
42616;SDS011;28250;52.320;0.360;2023-06-22T03:47:22;12.57;;;6.55;;
42616;SDS011;28250;52.320;0.360;2023-06-22T03:49:48;8.82;;;6.68;;
42616;SDS011;28250;52.320;0.360;2023-06-22T03:52:15;9.52;;;6.35;;
42616;SDS011;28250;52.320;0.360;2023-06-22T03:54:41;10.95;;;6.72;;
42616;SDS011;28250;52.320;0.360;2023-06-22T03:57:07;11.18;;;6.90;;
42616;SDS011;28250;52.320;0.360;2023-06-22T03:59:34;12.20;;;6.68;;
42616;SDS011;28250;52.320;0.360;2023-06-22T04:02:02;10.73;;;6.70;;
42616;SDS011;28250;52.320;0.360;2023-06-22T04:04:28;8.93;;;5.90;;
42616;SDS011;28250;52.320;0.360;2023-06-22T04:06:55;12.73;;;6.30;;
42616;SDS011;28250;52.320;0.360;2023-06-22T04:09:21;13.77;;;6.88;;
42616;SDS011;28250;52.320;0.360;2023-06-22T04:11:47;13.20;;;7.10;;
42616;SDS011;28250;52.320;0.360;2023-06-22T04:14:14;12.07;;;6.95;;
42616;SDS011;28250;52.320;0.360;2023-06-22T04:16:40;10.82;;;6.35;;
42616;SDS011;28250;52.320;0.360;2023-06-22T04:19:06;11.30;;;7.28;;
42616;SDS011;28250;52.320;0.360;2023-06-22T04:21:38;12.77;;;6.60;;
42616;SDS011;28250;52.320;0.360;2023-06-22T04:24:05;10.25;;;6.80;;
42616;SDS011;28250;52.320;0.360;2023-06-22T04:26:31;9.97;;;6.73;;
42616;SDS011;28250;52.320;0.360;2023-06-22T04:29:03;9.75;;;6.78;;
42616;SDS011;28250;52.320;0.360;2023-06-22T04:31:31;8.68;;;6.35;;
42616;SDS011;28250;52.320;0.360;2023-06-22T04:34:05;11.52;;;6.53;;
42616;SDS011;28250;52.320;0.360;2023-06-22T04:36:36;11.27;;;5.88;;
42616;SDS011;28250;52.320;0.360;2023-06-22T04:39:04;10.85;;;6.25;;
42616;SDS011;28250;52.320;0.360;2023-06-22T04:41:39;11.70;;;6.70;;
42616;SDS011;28250;52.320;0.360;2023-06-22T04:44:12;13.50;;;6.97;;
42616;SDS011;28250;52.320;0.360;2023-06-22T04:46:53;13.95;;;7.00;;
42616;SDS011;28250;52.320;0.360;2023-06-22T04:49:26;11.35;;;7.20;;
42616;SDS011;28250;52.320;0.360;2023-06-22T04:52:01;11.27;;;6.95;;
42616;SDS011;28250;52.320;0.360;2023-06-22T04:54:29;9.48;;;6.72;;
42616;SDS011;28250;52.320;0.360;2023-06-22T04:56:59;11.80;;;6.38;;
42616;SDS011;28250;52.320;0.360;2023-06-22T04:59:27;9.77;;;6.82;;
42616;SDS011;28250;52.320;0.360;2023-06-22T05:01:59;10.77;;;6.50;;
42616;SDS011;28250;52.320;0.360;2023-06-22T05:04:28;13.63;;;7.93;;
42616;SDS011;28250;52.320;0.360;2023-06-22T05:06:58;14.70;;;7.28;;
42616;SDS011;28250;52.320;0.360;2023-06-22T05:09:28;13.38;;;6.57;;
42616;SDS011;28250;52.320;0.360;2023-06-22T05:11:55;15.20;;;7.03;;
42616;SDS011;28250;52.320;0.360;2023-06-22T05:14:27;11.90;;;6.97;;
42616;SDS011;28250;52.320;0.360;2023-06-22T05:16:54;12.70;;;7.55;;
42616;SDS011;28250;52.320;0.360;2023-06-22T05:19:24;12.25;;;7.50;;
42616;SDS011;28250;52.320;0.360;2023-06-22T05:21:56;16.65;;;8.35;;
42616;SDS011;28250;52.320;0.360;2023-06-22T05:24:22;15.63;;;7.90;;
42616;SDS011;28250;52.320;0.360;2023-06-22T05:26:49;15.13;;;7.72;;
42616;SDS011;28250;52.320;0.360;2023-06-22T05:29:15;16.40;;;6.97;;
42616;SDS011;28250;52.320;0.360;2023-06-22T05:31:42;12.65;;;6.97;;
42616;SDS011;28250;52.320;0.360;2023-06-22T05:34:08;10.77;;;6.97;;
42616;SDS011;28250;52.320;0.360;2023-06-22T05:36:34;11.23;;;6.72;;
42616;SDS011;28250;52.320;0.360;2023-06-22T05:39:10;13.93;;;7.28;;
42616;SDS011;28250;52.320;0.360;2023-06-22T05:41:40;16.65;;;6.95;;
42616;SDS011;28250;52.320;0.360;2023-06-22T05:44:08;15.52;;;7.80;;
42616;SDS011;28250;52.320;0.360;2023-06-22T05:46:34;12.77;;;7.28;;
42616;SDS011;28250;52.320;0.360;2023-06-22T05:49:01;12.07;;;7.38;;
42616;SDS011;28250;52.320;0.360;2023-06-22T05:51:27;13.27;;;7.82;;
42616;SDS011;28250;52.320;0.360;2023-06-22T05:53:53;12.95;;;7.35;;
42616;SDS011;28250;52.320;0.360;2023-06-22T05:56:20;12.18;;;7.57;;
42616;SDS011;28250;52.320;0.360;2023-06-22T05:58:46;11.90;;;6.78;;
42616;SDS011;28250;52.320;0.360;2023-06-22T06:01:13;22.43;;;9.23;;
42616;SDS011;28250;52.320;0.360;2023-06-22T06:03:40;14.15;;;8.15;;
42616;SDS011;28250;52.320;0.360;2023-06-22T06:06:07;11.70;;;7.25;;
42616;SDS011;28250;52.320;0.360;2023-06-22T06:08:33;13.80;;;7.93;;
42616;SDS011;28250;52.320;0.360;2023-06-22T06:11:00;17.38;;;8.75;;
42616;SDS011;28250;52.320;0.360;2023-06-22T06:13:26;14.48;;;8.55;;
42616;SDS011;28250;52.320;0.360;2023-06-22T06:15:53;15.73;;;8.17;;
42616;SDS011;28250;52.320;0.360;2023-06-22T06:18:22;14.02;;;8.10;;
42616;SDS011;28250;52.320;0.360;2023-06-22T06:20:48;13.20;;;7.80;;
42616;SDS011;28250;52.320;0.360;2023-06-22T06:23:15;15.07;;;8.45;;
42616;SDS011;28250;52.320;0.360;2023-06-22T06:25:41;14.38;;;8.00;;
42616;SDS011;28250;52.320;0.360;2023-06-22T06:28:07;12.80;;;7.70;;
42616;SDS011;28250;52.320;0.360;2023-06-22T06:30:34;18.77;;;8.53;;
42616;SDS011;28250;52.320;0.360;2023-06-22T06:33:02;16.15;;;8.43;;
42616;SDS011;28250;52.320;0.360;2023-06-22T06:35:34;14.98;;;8.48;;
42616;SDS011;28250;52.320;0.360;2023-06-22T06:38:01;13.63;;;8.20;;
42616;SDS011;28250;52.320;0.360;2023-06-22T06:40:27;18.17;;;8.83;;
42616;SDS011;28250;52.320;0.360;2023-06-22T06:42:54;14.60;;;7.82;;
42616;SDS011;28250;52.320;0.360;2023-06-22T06:45:22;12.98;;;8.18;;
42616;SDS011;28250;52.320;0.360;2023-06-22T06:47:49;14.65;;;8.18;;
42616;SDS011;28250;52.320;0.360;2023-06-22T06:52:42;17.23;;;7.87;;
42616;SDS011;28250;52.320;0.360;2023-06-22T06:55:09;15.18;;;8.70;;
42616;SDS011;28250;52.320;0.360;2023-06-22T06:57:37;13.20;;;9.07;;
42616;SDS011;28250;52.320;0.360;2023-06-22T07:00:05;16.33;;;8.45;;
42616;SDS011;28250;52.320;0.360;2023-06-22T07:02:35;16.80;;;9.02;;
42616;SDS011;28250;52.320;0.360;2023-06-22T07:05:01;15.13;;;8.38;;
42616;SDS011;28250;52.320;0.360;2023-06-22T07:07:29;14.82;;;8.30;;
42616;SDS011;28250;52.320;0.360;2023-06-22T07:09:56;16.52;;;9.00;;
42616;SDS011;28250;52.320;0.360;2023-06-22T07:12:22;16.85;;;8.68;;
42616;SDS011;28250;52.320;0.360;2023-06-22T07:14:49;19.30;;;9.63;;
42616;SDS011;28250;52.320;0.360;2023-06-22T07:17:16;17.27;;;8.82;;
42616;SDS011;28250;52.320;0.360;2023-06-22T07:19:42;13.95;;;8.50;;
42616;SDS011;28250;52.320;0.360;2023-06-22T07:22:09;18.33;;;9.25;;
42616;SDS011;28250;52.320;0.360;2023-06-22T07:24:35;16.70;;;9.00;;
42616;SDS011;28250;52.320;0.360;2023-06-22T07:27:02;18.13;;;9.20;;
42616;SDS011;28250;52.320;0.360;2023-06-22T07:29:31;16.92;;;10.18;;
42616;SDS011;28250;52.320;0.360;2023-06-22T07:31:58;17.53;;;8.13;;
42616;SDS011;28250;52.320;0.360;2023-06-22T07:34:26;17.35;;;8.50;;
42616;SDS011;28250;52.320;0.360;2023-06-22T07:36:52;18.08;;;10.02;;
42616;SDS011;28250;52.320;0.360;2023-06-22T07:39:19;17.67;;;9.27;;
42616;SDS011;28250;52.320;0.360;2023-06-22T07:41:51;16.13;;;9.25;;
42616;SDS011;28250;52.320;0.360;2023-06-22T07:44:18;17.17;;;8.23;;
42616;SDS011;28250;52.320;0.360;2023-06-22T07:46:44;15.98;;;8.18;;
42616;SDS011;28250;52.320;0.360;2023-06-22T07:49:11;20.92;;;9.60;;
42616;SDS011;28250;52.320;0.360;2023-06-22T07:51:37;11.07;;;7.05;;
42616;SDS011;28250;52.320;0.360;2023-06-22T07:54:04;13.30;;;7.95;;
42616;SDS011;28250;52.320;0.360;2023-06-22T07:56:30;12.52;;;7.30;;
42616;SDS011;28250;52.320;0.360;2023-06-22T07:58:58;11.32;;;7.35;;
42616;SDS011;28250;52.320;0.360;2023-06-22T08:01:26;12.02;;;7.15;;
42616;SDS011;28250;52.320;0.360;2023-06-22T08:03:52;8.70;;;6.50;;
42616;SDS011;28250;52.320;0.360;2023-06-22T08:06:19;12.37;;;6.93;;
42616;SDS011;28250;52.320;0.360;2023-06-22T08:08:45;11.40;;;6.05;;
42616;SDS011;28250;52.320;0.360;2023-06-22T08:11:13;9.00;;;5.88;;
42616;SDS011;28250;52.320;0.360;2023-06-22T08:13:40;10.35;;;5.90;;
42616;SDS011;28250;52.320;0.360;2023-06-22T08:16:06;121.80;;;21.20;;
42616;SDS011;28250;52.320;0.360;2023-06-22T08:18:32;65.25;;;12.27;;
42616;SDS011;28250;52.320;0.360;2023-06-22T08:20:59;56.22;;;13.10;;
42616;SDS011;28250;52.320;0.360;2023-06-22T08:23:25;71.88;;;16.35;;
42616;SDS011;28250;52.320;0.360;2023-06-22T08:25:52;61.63;;;13.88;;
42616;SDS011;28250;52.320;0.360;2023-06-22T08:28:18;22.83;;;7.85;;
42616;SDS011;28250;52.320;0.360;2023-06-22T08:30:44;11.13;;;6.38;;
42616;SDS011;28250;52.320;0.360;2023-06-22T08:33:11;8.80;;;5.37;;
42616;SDS011;28250;52.320;0.360;2023-06-22T08:35:38;10.45;;;5.60;;
42616;SDS011;28250;52.320;0.360;2023-06-22T08:38:04;13.48;;;5.97;;
42616;SDS011;28250;52.320;0.360;2023-06-22T08:40:31;17.33;;;6.10;;
42616;SDS011;28250;52.320;0.360;2023-06-22T08:42:57;11.50;;;6.37;;
42616;SDS011;28250;52.320;0.360;2023-06-22T08:45:23;7.10;;;4.80;;
42616;SDS011;28250;52.320;0.360;2023-06-22T08:47:50;11.05;;;6.38;;
42616;SDS011;28250;52.320;0.360;2023-06-22T08:50:16;10.60;;;5.23;;
42616;SDS011;28250;52.320;0.360;2023-06-22T08:52:43;12.17;;;5.37;;
42616;SDS011;28250;52.320;0.360;2023-06-22T08:55:10;7.60;;;5.43;;
42616;SDS011;28250;52.320;0.360;2023-06-22T08:57:37;9.87;;;5.27;;
42616;SDS011;28250;52.320;0.360;2023-06-22T09:00:06;6.57;;;4.60;;
42616;SDS011;28250;52.320;0.360;2023-06-22T09:02:52;10.02;;;5.72;;
42616;SDS011;28250;52.320;0.360;2023-06-22T09:05:18;9.13;;;5.00;;
42616;SDS011;28250;52.320;0.360;2023-06-22T09:07:47;10.13;;;6.20;;
42616;SDS011;28250;52.320;0.360;2023-06-22T09:10:13;15.17;;;5.80;;
42616;SDS011;28250;52.320;0.360;2023-06-22T09:12:40;10.32;;;6.00;;
42616;SDS011;28250;52.320;0.360;2023-06-22T09:15:06;8.90;;;5.13;;
42616;SDS011;28250;52.320;0.360;2023-06-22T09:17:33;9.68;;;5.57;;
42616;SDS011;28250;52.320;0.360;2023-06-22T09:20:01;8.93;;;5.55;;
42616;SDS011;28250;52.320;0.360;2023-06-22T09:22:31;6.13;;;4.65;;
42616;SDS011;28250;52.320;0.360;2023-06-22T09:24:58;8.30;;;4.47;;
42616;SDS011;28250;52.320;0.360;2023-06-22T09:27:25;10.60;;;5.10;;
42616;SDS011;28250;52.320;0.360;2023-06-22T09:29:51;7.30;;;5.10;;
42616;SDS011;28250;52.320;0.360;2023-06-22T09:32:17;7.93;;;4.70;;
42616;SDS011;28250;52.320;0.360;2023-06-22T09:34:44;11.53;;;5.23;;
42616;SDS011;28250;52.320;0.360;2023-06-22T09:37:10;8.27;;;5.20;;
42616;SDS011;28250;52.320;0.360;2023-06-22T09:39:36;9.17;;;5.10;;
42616;SDS011;28250;52.320;0.360;2023-06-22T09:42:03;9.75;;;5.20;;
42616;SDS011;28250;52.320;0.360;2023-06-22T09:44:31;10.70;;;5.55;;
42616;SDS011;28250;52.320;0.360;2023-06-22T09:46:57;8.10;;;5.30;;
42616;SDS011;28250;52.320;0.360;2023-06-22T09:49:24;8.32;;;5.18;;
42616;SDS011;28250;52.320;0.360;2023-06-22T09:51:51;9.03;;;5.43;;
42616;SDS011;28250;52.320;0.360;2023-06-22T09:54:18;9.30;;;4.85;;
42616;SDS011;28250;52.320;0.360;2023-06-22T09:56:44;9.05;;;5.50;;
42616;SDS011;28250;52.320;0.360;2023-06-22T09:59:11;10.43;;;4.93;;
42616;SDS011;28250;52.320;0.360;2023-06-22T10:01:37;7.93;;;4.60;;
42616;SDS011;28250;52.320;0.360;2023-06-22T10:04:04;8.07;;;4.80;;
42616;SDS011;28250;52.320;0.360;2023-06-22T10:06:30;7.43;;;4.25;;
42616;SDS011;28250;52.320;0.360;2023-06-22T10:08:56;7.45;;;4.65;;
42616;SDS011;28250;52.320;0.360;2023-06-22T10:11:23;11.38;;;4.70;;
42616;SDS011;28250;52.320;0.360;2023-06-22T10:13:54;7.15;;;4.60;;
42616;SDS011;28250;52.320;0.360;2023-06-22T10:16:20;6.10;;;4.28;;
42616;SDS011;28250;52.320;0.360;2023-06-22T10:18:49;4.95;;;4.05;;
42616;SDS011;28250;52.320;0.360;2023-06-22T10:21:15;9.97;;;5.03;;
42616;SDS011;28250;52.320;0.360;2023-06-22T10:23:41;6.90;;;4.28;;
42616;SDS011;28250;52.320;0.360;2023-06-22T10:26:08;8.85;;;4.30;;
42616;SDS011;28250;52.320;0.360;2023-06-22T10:28:34;8.35;;;4.80;;
42616;SDS011;28250;52.320;0.360;2023-06-22T10:31:00;6.40;;;4.60;;
42616;SDS011;28250;52.320;0.360;2023-06-22T10:33:27;5.07;;;3.28;;
42616;SDS011;28250;52.320;0.360;2023-06-22T10:35:53;8.05;;;4.35;;
42616;SDS011;28250;52.320;0.360;2023-06-22T10:38:20;4.65;;;3.53;;
42616;SDS011;28250;52.320;0.360;2023-06-22T10:40:46;6.05;;;4.07;;
42616;SDS011;28250;52.320;0.360;2023-06-22T10:43:13;4.82;;;4.07;;
42616;SDS011;28250;52.320;0.360;2023-06-22T10:45:39;9.30;;;4.32;;
42616;SDS011;28250;52.320;0.360;2023-06-22T10:48:05;11.53;;;4.03;;
42616;SDS011;28250;52.320;0.360;2023-06-22T10:50:32;6.20;;;3.63;;
42616;SDS011;28250;52.320;0.360;2023-06-22T10:52:58;5.50;;;3.78;;
42616;SDS011;28250;52.320;0.360;2023-06-22T10:55:25;5.10;;;3.78;;
42616;SDS011;28250;52.320;0.360;2023-06-22T10:57:51;6.93;;;3.45;;
42616;SDS011;28250;52.320;0.360;2023-06-22T11:00:17;5.10;;;3.92;;
42616;SDS011;28250;52.320;0.360;2023-06-22T11:02:44;14.52;;;4.45;;
42616;SDS011;28250;52.320;0.360;2023-06-22T11:05:10;5.97;;;3.78;;
42616;SDS011;28250;52.320;0.360;2023-06-22T11:07:37;5.72;;;4.68;;
42616;SDS011;28250;52.320;0.360;2023-06-22T11:10:07;6.18;;;3.88;;
42616;SDS011;28250;52.320;0.360;2023-06-22T11:12:34;5.00;;;3.33;;
42616;SDS011;28250;52.320;0.360;2023-06-22T11:15:01;5.70;;;3.63;;
42616;SDS011;28250;52.320;0.360;2023-06-22T11:17:28;6.57;;;3.67;;
42616;SDS011;28250;52.320;0.360;2023-06-22T11:19:54;8.05;;;4.00;;
42616;SDS011;28250;52.320;0.360;2023-06-22T11:22:20;7.00;;;3.90;;
42616;SDS011;28250;52.320;0.360;2023-06-22T11:24:47;5.60;;;3.58;;
42616;SDS011;28250;52.320;0.360;2023-06-22T11:27:13;5.93;;;3.17;;
42616;SDS011;28250;52.320;0.360;2023-06-22T11:29:40;6.15;;;3.38;;
42616;SDS011;28250;52.320;0.360;2023-06-22T11:32:06;5.38;;;3.22;;
42616;SDS011;28250;52.320;0.360;2023-06-22T11:34:33;7.15;;;3.88;;
42616;SDS011;28250;52.320;0.360;2023-06-22T11:37:00;4.30;;;3.05;;
42616;SDS011;28250;52.320;0.360;2023-06-22T11:39:26;4.65;;;3.70;;
42616;SDS011;28250;52.320;0.360;2023-06-22T11:41:53;4.15;;;3.50;;
42616;SDS011;28250;52.320;0.360;2023-06-22T11:44:19;6.10;;;3.13;;
42616;SDS011;28250;52.320;0.360;2023-06-22T11:46:45;5.38;;;2.75;;
42616;SDS011;28250;52.320;0.360;2023-06-22T11:49:13;4.75;;;2.90;;
42616;SDS011;28250;52.320;0.360;2023-06-22T11:51:40;5.50;;;2.95;;
42616;SDS011;28250;52.320;0.360;2023-06-22T11:54:06;4.22;;;2.85;;
42616;SDS011;28250;52.320;0.360;2023-06-22T11:56:32;5.55;;;2.97;;
42616;SDS011;28250;52.320;0.360;2023-06-22T11:58:59;6.55;;;3.25;;
42616;SDS011;28250;52.320;0.360;2023-06-22T12:01:25;7.45;;;2.72;;
42616;SDS011;28250;52.320;0.360;2023-06-22T12:03:52;3.08;;;2.63;;
42616;SDS011;28250;52.320;0.360;2023-06-22T12:06:18;3.03;;;2.70;;
42616;SDS011;28250;52.320;0.360;2023-06-22T12:08:44;3.17;;;2.72;;
42616;SDS011;28250;52.320;0.360;2023-06-22T12:11:11;4.60;;;3.03;;
42616;SDS011;28250;52.320;0.360;2023-06-22T12:13:37;5.07;;;2.42;;
42616;SDS011;28250;52.320;0.360;2023-06-22T12:16:03;4.07;;;3.03;;
42616;SDS011;28250;52.320;0.360;2023-06-22T12:18:30;4.60;;;3.10;;
42616;SDS011;28250;52.320;0.360;2023-06-22T12:20:57;5.15;;;3.08;;
42616;SDS011;28250;52.320;0.360;2023-06-22T12:23:24;2.53;;;2.20;;
42616;SDS011;28250;52.320;0.360;2023-06-22T12:25:50;3.50;;;3.20;;
42616;SDS011;28250;52.320;0.360;2023-06-22T12:28:17;6.85;;;3.47;;
42616;SDS011;28250;52.320;0.360;2023-06-22T12:30:43;3.72;;;3.33;;
42616;SDS011;28250;52.320;0.360;2023-06-22T12:33:10;3.92;;;3.25;;
42616;SDS011;28250;52.320;0.360;2023-06-22T12:35:36;4.68;;;2.60;;
42616;SDS011;28250;52.320;0.360;2023-06-22T12:38:02;3.53;;;2.90;;
42616;SDS011;28250;52.320;0.360;2023-06-22T12:40:31;3.25;;;2.92;;
42616;SDS011;28250;52.320;0.360;2023-06-22T12:42:58;5.05;;;2.95;;
42616;SDS011;28250;52.320;0.360;2023-06-22T12:45:24;6.90;;;2.60;;
42616;SDS011;28250;52.320;0.360;2023-06-22T12:47:54;4.85;;;3.10;;
42616;SDS011;28250;52.320;0.360;2023-06-22T12:50:20;4.20;;;2.80;;
42616;SDS011;28250;52.320;0.360;2023-06-22T12:52:47;4.18;;;2.97;;
42616;SDS011;28250;52.320;0.360;2023-06-22T12:55:13;5.43;;;2.60;;
42616;SDS011;28250;52.320;0.360;2023-06-22T12:57:39;3.80;;;3.00;;
42616;SDS011;28250;52.320;0.360;2023-06-22T13:00:06;5.25;;;2.90;;
42616;SDS011;28250;52.320;0.360;2023-06-22T13:02:35;6.43;;;3.00;;
42616;SDS011;28250;52.320;0.360;2023-06-22T13:05:02;2.80;;;2.50;;
42616;SDS011;28250;52.320;0.360;2023-06-22T13:07:30;4.00;;;2.50;;
42616;SDS011;28250;52.320;0.360;2023-06-22T13:09:56;3.72;;;2.78;;
42616;SDS011;28250;52.320;0.360;2023-06-22T13:12:23;4.97;;;2.78;;
42616;SDS011;28250;52.320;0.360;2023-06-22T13:14:49;4.10;;;2.60;;
42616;SDS011;28250;52.320;0.360;2023-06-22T13:17:16;3.20;;;2.90;;
42616;SDS011;28250;52.320;0.360;2023-06-22T13:19:42;3.92;;;2.50;;
42616;SDS011;28250;52.320;0.360;2023-06-22T13:22:25;5.90;;;3.42;;
42616;SDS011;28250;52.320;0.360;2023-06-22T13:24:53;5.10;;;2.95;;
42616;SDS011;28250;52.320;0.360;2023-06-22T13:27:19;7.85;;;5.50;;
42616;SDS011;28250;52.320;0.360;2023-06-22T13:29:46;8.95;;;4.80;;
42616;SDS011;28250;52.320;0.360;2023-06-22T13:32:12;10.55;;;5.60;;
42616;SDS011;28250;52.320;0.360;2023-06-22T13:34:38;11.43;;;7.05;;
42616;SDS011;28250;52.320;0.360;2023-06-22T13:37:05;9.65;;;4.57;;
42616;SDS011;28250;52.320;0.360;2023-06-22T13:39:31;3.70;;;2.78;;
42616;SDS011;28250;52.320;0.360;2023-06-22T13:41:58;4.88;;;2.92;;
42616;SDS011;28250;52.320;0.360;2023-06-22T13:44:24;4.07;;;2.70;;
42616;SDS011;28250;52.320;0.360;2023-06-22T13:46:54;6.65;;;2.50;;
42616;SDS011;28250;52.320;0.360;2023-06-22T13:49:20;3.53;;;2.42;;
42616;SDS011;28250;52.320;0.360;2023-06-22T13:51:47;2.35;;;2.13;;
42616;SDS011;28250;52.320;0.360;2023-06-22T13:54:14;5.47;;;3.17;;
42616;SDS011;28250;52.320;0.360;2023-06-22T13:56:41;5.05;;;2.88;;
42616;SDS011;28250;52.320;0.360;2023-06-22T13:59:07;4.93;;;2.10;;
42616;SDS011;28250;52.320;0.360;2023-06-22T14:01:37;4.80;;;2.38;;
42616;SDS011;28250;52.320;0.360;2023-06-22T14:04:05;3.63;;;1.98;;
42616;SDS011;28250;52.320;0.360;2023-06-22T14:06:31;6.10;;;2.42;;
42616;SDS011;28250;52.320;0.360;2023-06-22T14:08:58;4.75;;;2.53;;
42616;SDS011;28250;52.320;0.360;2023-06-22T14:11:24;4.75;;;2.13;;
42616;SDS011;28250;52.320;0.360;2023-06-22T14:13:51;3.35;;;2.17;;
42616;SDS011;28250;52.320;0.360;2023-06-22T14:16:17;3.53;;;2.60;;
42616;SDS011;28250;52.320;0.360;2023-06-22T14:18:44;5.60;;;2.60;;
42616;SDS011;28250;52.320;0.360;2023-06-22T14:21:11;4.35;;;2.45;;
42616;SDS011;28250;52.320;0.360;2023-06-22T14:23:37;3.50;;;2.28;;
42616;SDS011;28250;52.320;0.360;2023-06-22T14:26:04;15.27;;;4.22;;
42616;SDS011;28250;52.320;0.360;2023-06-22T14:28:30;5.57;;;2.60;;
42616;SDS011;28250;52.320;0.360;2023-06-22T14:30:56;34.87;;;5.80;;
42616;SDS011;28250;52.320;0.360;2023-06-22T14:33:23;8.80;;;3.40;;
42616;SDS011;28250;52.320;0.360;2023-06-22T14:35:49;183.70;;;24.63;;
42616;SDS011;28250;52.320;0.360;2023-06-22T14:38:16;9.15;;;3.58;;
42616;SDS011;28250;52.320;0.360;2023-06-22T14:40:42;6.53;;;2.92;;
42616;SDS011;28250;52.320;0.360;2023-06-22T14:43:08;5.95;;;2.55;;
42616;SDS011;28250;52.320;0.360;2023-06-22T14:45:35;2.87;;;2.30;;
42616;SDS011;28250;52.320;0.360;2023-06-22T14:48:01;4.38;;;2.90;;
42616;SDS011;28250;52.320;0.360;2023-06-22T14:50:27;3.92;;;2.38;;
42616;SDS011;28250;52.320;0.360;2023-06-22T14:52:54;3.60;;;2.60;;
42616;SDS011;28250;52.320;0.360;2023-06-22T14:55:20;3.67;;;2.77;;
42616;SDS011;28250;52.320;0.360;2023-06-22T14:57:47;6.73;;;2.30;;
42616;SDS011;28250;52.320;0.360;2023-06-22T15:00:13;4.68;;;2.42;;